createdAt,value
2023-03-25T00:04:51.258Z,6.03
2023-03-25T00:10:13.948Z,5.88
2023-03-25T00:15:36.224Z,5.73
2023-03-25T00:20:59.736Z,5.64
2023-03-25T00:26:22.126Z,5.37
2023-03-25T00:31:44.462Z,5.54
2023-03-25T00:37:06.755Z,5.77
2023-03-25T00:42:29.965Z,5.67
2023-03-25T00:47:52.263Z,5.48
2023-03-25T00:53:14.693Z,5.29
2023-03-25T00:58:36.961Z,5.21
2023-03-25T01:04:03.355Z,5.34
2023-03-25T01:15:01.308Z,5.51
2023-03-25T01:20:24.299Z,5.10
2023-03-25T01:25:46.749Z,4.90
2023-03-25T01:31:23.681Z,4.78
2023-03-25T01:36:47.973Z,5.10
2023-03-25T01:42:20.228Z,5.44
2023-03-25T01:47:42.666Z,5.22
2023-03-25T01:53:06.973Z,5.06
2023-03-25T01:58:32.330Z,5.28
2023-03-25T02:03:58.511Z,5.27
2023-03-25T02:09:24.319Z,5.08
2023-03-25T02:14:49.968Z,4.93
2023-03-25T02:20:42.775Z,4.81
2023-03-25T02:26:37.556Z,4.73
2023-03-25T02:32:15.736Z,4.97
2023-03-25T02:38:15.774Z,5.04
2023-03-25T02:44:01.552Z,5.05
2023-03-25T02:49:31.574Z,5.07
2023-03-25T02:54:57.733Z,5.18
2023-03-25T03:00:24.785Z,4.96
2023-03-25T03:05:50.929Z,4.70
2023-03-25T03:11:37.133Z,4.52
2023-03-25T03:17:30.922Z,4.31
2023-03-25T03:23:13.519Z,4.45
2023-03-25T03:28:59.796Z,4.34
2023-03-25T03:34:36.828Z,4.11
2023-03-25T03:40:01.523Z,4.40
2023-03-25T03:45:34.759Z,4.58
2023-03-25T03:51:18.052Z,4.51
2023-03-25T03:57:02.152Z,4.38
2023-03-25T04:02:47.995Z,4.30
2023-03-25T04:08:22.139Z,4.22
2023-03-25T04:13:48.958Z,4.19
2023-03-25T04:19:13.498Z,4.36
2023-03-25T04:24:37.883Z,4.22
2023-03-25T04:30:17.322Z,4.19
2023-03-25T04:35:40.840Z,4.08
2023-03-25T04:41:05.561Z,4.16
2023-03-25T04:46:30.241Z,4.37
2023-03-25T04:51:54.945Z,4.22
2023-03-25T04:57:17.577Z,4.14
2023-03-25T05:02:40.483Z,4.00
2023-03-25T05:08:11.843Z,4.03
2023-03-25T05:13:34.188Z,4.19
2023-03-25T05:18:56.540Z,4.37
2023-03-25T05:24:22.031Z,4.52
2023-03-25T05:29:44.843Z,4.62
2023-03-25T05:35:07.752Z,4.52
2023-03-25T05:40:30.231Z,4.65
2023-03-25T05:45:52.941Z,4.86
2023-03-25T05:51:18.446Z,5.02
2023-03-25T05:56:43.359Z,5.13
2023-03-25T06:02:08.020Z,5.25
2023-03-25T06:07:31.551Z,5.42
2023-03-25T06:12:54.496Z,5.57
2023-03-25T06:18:17.352Z,5.77
2023-03-25T06:23:40.204Z,5.88
2023-03-25T06:29:04.368Z,6.14
2023-03-25T06:34:26.745Z,6.29
2023-03-25T06:39:50.060Z,6.49
2023-03-25T06:45:14.149Z,6.67
2023-03-25T06:50:37.347Z,6.92
2023-03-25T06:56:02.346Z,7.16
2023-03-25T07:01:24.634Z,7.40
2023-03-25T07:06:46.938Z,7.64
2023-03-25T07:12:09.798Z,7.85
2023-03-25T07:17:33.272Z,7.98
2023-03-25T07:22:55.654Z,8.17
2023-03-25T07:28:18.129Z,8.38
2023-03-25T07:33:41.025Z,8.47
2023-03-25T07:39:03.626Z,8.72
2023-03-25T07:44:25.951Z,8.83
2023-03-25T07:49:49.882Z,9.07
2023-03-25T07:55:12.533Z,9.07
2023-03-25T08:00:37.901Z,9.12
2023-03-25T08:06:07.199Z,9.68
2023-03-25T08:11:29.586Z,9.70
2023-03-25T08:16:52.676Z,9.49
2023-03-25T08:22:15.368Z,9.48
2023-03-25T08:27:37.764Z,9.70
2023-03-25T08:33:00.221Z,9.95
2023-03-25T08:38:25.577Z,10.02
2023-03-25T08:43:48.423Z,9.84
2023-03-25T08:49:12.013Z,10.00
2023-03-25T08:54:34.851Z,10.31
2023-03-25T08:59:57.325Z,10.15
2023-03-25T09:05:20.287Z,10.29
2023-03-25T09:10:43.793Z,10.39
2023-03-25T09:16:06.082Z,10.50
2023-03-25T09:21:28.381Z,10.39
2023-03-25T09:26:51.614Z,10.33
2023-03-25T09:32:15.562Z,10.14
2023-03-25T09:37:38.293Z,10.05
2023-03-25T09:43:34.282Z,9.93
2023-03-25T09:49:00.726Z,9.86
2023-03-25T09:54:37.013Z,9.86
2023-03-25T10:00:04.477Z,9.76
2023-03-25T10:05:49.228Z,9.82
2023-03-25T10:11:41.460Z,10.01
2023-03-25T10:17:39.282Z,10.22
2023-03-25T10:23:33.452Z,10.18
2023-03-25T10:29:01.807Z,9.79
2023-03-25T10:34:36.200Z,9.69
2023-03-25T10:40:02.107Z,9.83
2023-03-25T10:45:36.069Z,9.97
2023-03-25T10:51:04.920Z,10.09
2023-03-25T10:56:43.613Z,10.12
2023-03-25T11:02:08.690Z,10.38
2023-03-25T11:07:47.721Z,11.15
2023-03-25T11:13:11.453Z,11.26
2023-03-25T11:18:45.985Z,10.97
2023-03-25T11:24:13.005Z,11.22
2023-03-25T11:29:38.861Z,12.33
2023-03-25T11:35:04.219Z,13.03
2023-03-25T11:40:29.981Z,12.47
2023-03-25T11:46:08.673Z,12.31
2023-03-25T11:51:35.768Z,12.84
2023-03-25T11:57:03.284Z,12.90
2023-03-25T12:02:40.005Z,13.06
2023-03-25T12:08:10.237Z,12.68
2023-03-25T12:13:32.721Z,12.33
2023-03-25T12:19:29.248Z,12.60
2023-03-25T12:25:27.861Z,12.79
2023-03-25T12:31:34.076Z,11.74
2023-03-25T12:37:22.376Z,11.49
2023-03-25T12:43:04.840Z,10.92
2023-03-25T12:49:02.346Z,10.87
2023-03-25T12:54:41.690Z,9.92
2023-03-25T13:00:26.490Z,8.28
2023-03-25T13:06:20.426Z,7.84
2023-03-25T13:11:58.571Z,7.88
2023-03-25T13:17:46.463Z,7.95
2023-03-25T13:23:13.174Z,8.03
2023-03-25T13:28:40.018Z,8.11
2023-03-25T13:34:40.929Z,8.23
2023-03-25T13:40:20.212Z,8.44
2023-03-25T13:46:05.602Z,8.78
2023-03-25T13:51:29.260Z,8.97
2023-03-25T13:57:33.627Z,9.02
2023-03-25T14:03:30.776Z,8.99
2023-03-25T14:09:27.641Z,9.33
2023-03-25T14:14:58.352Z,9.77
2023-03-25T14:20:41.705Z,10.76
2023-03-25T14:26:10.777Z,12.40
2023-03-25T14:37:13.462Z,11.44
2023-03-25T14:42:48.940Z,10.93
2023-03-25T14:48:23.243Z,10.42
2023-03-25T14:53:39.477Z,10.20
2023-03-25T14:59:04.478Z,10.22
2023-03-25T15:04:38.771Z,10.18
2023-03-25T15:10:07.831Z,10.08
2023-03-25T15:16:02.566Z,9.93
2023-03-25T15:21:30.246Z,9.91
2023-03-25T15:27:02.714Z,9.91
2023-03-25T15:32:39.731Z,9.96
2023-03-25T15:38:16.998Z,10.00
2023-03-25T15:44:20.404Z,10.09
2023-03-25T15:50:07.008Z,10.67
2023-03-25T15:55:42.681Z,11.95
2023-03-25T16:01:10.169Z,12.06
2023-03-25T16:06:34.689Z,12.53
2023-03-25T16:11:59.637Z,11.59
2023-03-25T16:17:26.088Z,11.02
2023-03-25T16:22:50.363Z,11.85
2023-03-25T16:28:21.650Z,11.58
2023-03-25T16:33:47.440Z,10.61
2023-03-25T16:39:10.389Z,10.24
2023-03-25T16:44:37.915Z,9.99
2023-03-25T16:50:03.441Z,9.82
2023-03-25T16:55:59.340Z,9.68
2023-03-25T17:01:23.594Z,9.45
2023-03-25T17:06:56.350Z,9.39
2023-03-25T17:12:24.715Z,9.11
2023-03-25T17:18:02.872Z,8.99
2023-03-25T17:23:41.829Z,8.88
2023-03-25T17:29:18.540Z,8.85
2023-03-25T17:34:45.182Z,8.80
2023-03-25T17:40:13.144Z,8.77
2023-03-25T17:45:36.362Z,8.81
2023-03-25T17:51:07.258Z,8.74
2023-03-25T17:56:34.107Z,8.32
2023-03-25T18:01:56.655Z,7.92
2023-03-25T18:07:21.233Z,7.73
2023-03-25T18:12:43.780Z,7.61
2023-03-25T18:18:06.576Z,7.53
2023-03-25T18:23:30.642Z,7.42
2023-03-25T18:28:53.313Z,7.27
2023-03-25T18:34:15.771Z,7.18
2023-03-25T18:39:40.814Z,7.15
2023-03-25T18:45:03.155Z,7.06
2023-03-25T18:50:53.179Z,7.00
2023-03-25T18:56:19.034Z,6.89
2023-03-25T19:01:42.808Z,6.80
2023-03-25T19:07:05.120Z,6.84
2023-03-25T19:12:27.361Z,6.93
2023-03-25T19:17:50.639Z,6.95
2023-03-25T19:23:17.224Z,6.88
2023-03-25T19:28:42.074Z,6.76
2023-03-25T19:34:04.307Z,6.59
2023-03-25T19:39:26.568Z,6.46
2023-03-25T19:44:52.559Z,6.28
2023-03-25T19:50:21.618Z,6.10
2023-03-25T19:55:44.048Z,5.96
2023-03-25T20:01:07.088Z,5.96
2023-03-25T20:06:29.439Z,5.86
2023-03-25T20:11:51.714Z,5.59
2023-03-25T20:17:14.116Z,5.41
2023-03-25T20:22:36.421Z,5.23
2023-03-25T20:27:59.076Z,5.02
2023-03-25T20:33:21.896Z,5.01
2023-03-25T20:38:56.134Z,4.94
2023-03-25T20:44:08.915Z,5.06
2023-03-25T20:49:32.381Z,5.25
2023-03-25T20:54:56.144Z,5.37
2023-03-25T21:00:20.320Z,5.49
2023-03-25T21:05:44.712Z,5.67
2023-03-25T21:11:07.970Z,5.88
2023-03-25T21:16:31.417Z,6.04
2023-03-25T21:21:55.713Z,6.07
2023-03-25T21:27:18.213Z,6.13
2023-03-25T21:32:40.570Z,6.16
2023-03-25T21:38:04.000Z,6.19
2023-03-25T21:43:26.643Z,6.21
2023-03-25T21:48:50.863Z,6.24
2023-03-25T21:54:14.855Z,6.20
2023-03-25T21:59:37.134Z,6.20
2023-03-25T22:05:01.509Z,6.21
2023-03-25T22:10:24.722Z,6.22
2023-03-25T22:15:47.256Z,6.25
2023-03-25T22:21:29.768Z,6.24
2023-03-25T22:26:52.865Z,6.24
2023-03-25T22:32:15.118Z,6.29
2023-03-25T22:37:37.346Z,6.38
2023-03-25T22:42:59.595Z,6.37
2023-03-25T22:48:22.004Z,6.35
2023-03-25T22:53:45.729Z,6.33
2023-03-25T22:59:10.384Z,6.29
2023-03-25T23:04:32.796Z,6.26
2023-03-25T23:09:56.192Z,6.19
2023-03-25T23:15:18.707Z,6.20
2023-03-25T23:20:40.928Z,6.22
2023-03-25T23:26:22.375Z,6.24
2023-03-25T23:31:47.652Z,6.25
2023-03-25T23:37:10.634Z,6.23
2023-03-25T23:42:35.457Z,6.20
2023-03-25T23:47:57.327Z,6.17
2023-03-25T23:53:21.217Z,6.14
2023-03-25T23:58:43.537Z,6.09
